createdAt,value
2018-07-13T00:02:12.370Z,100095.00
2018-07-13T00:04:40.250Z,100099.00
2018-07-13T00:07:08.221Z,100105.00
2018-07-13T00:09:36.133Z,100095.00
2018-07-13T00:12:04.071Z,100093.00
2018-07-13T00:14:32.009Z,100104.00
2018-07-13T00:16:59.867Z,100092.00
2018-07-13T00:19:27.738Z,100106.00
2018-07-13T00:21:55.618Z,100104.00
2018-07-13T00:24:23.483Z,100101.00
2018-07-13T00:26:51.378Z,100116.00
2018-07-13T00:29:19.198Z,100115.00
2018-07-13T00:31:47.013Z,100115.00
2018-07-13T00:34:14.923Z,100116.00
2018-07-13T00:36:42.812Z,100116.00
2018-07-13T00:39:12.169Z,100124.00
2018-07-13T00:41:40.074Z,100120.00
2018-07-13T00:44:08.209Z,100123.00
2018-07-13T00:46:36.034Z,100120.00
2018-07-13T00:49:03.891Z,100114.00
2018-07-13T00:51:31.777Z,100114.00
2018-07-13T00:53:59.700Z,100111.00
2018-07-13T00:56:27.576Z,100107.00
2018-07-13T00:58:55.414Z,100117.00
2018-07-13T01:01:23.289Z,100121.00
2018-07-13T01:03:51.181Z,100115.00
2018-07-13T01:06:19.090Z,100110.00
2018-07-13T01:08:47.011Z,100121.00
2018-07-13T01:11:14.891Z,100122.00
2018-07-13T01:13:42.706Z,100123.00
2018-07-13T01:16:10.523Z,100123.00
2018-07-13T01:18:38.410Z,100126.00
2018-07-13T01:21:06.290Z,100126.00
2018-07-13T01:23:34.123Z,100135.00
2018-07-13T01:26:01.894Z,100134.00
2018-07-13T01:28:29.753Z,100128.00
2018-07-13T01:30:57.626Z,100134.00
2018-07-13T01:33:25.526Z,100131.00
2018-07-13T01:35:53.389Z,100128.00
2018-07-13T01:38:21.262Z,100133.00
2018-07-13T01:40:49.125Z,100125.00
2018-07-13T01:43:17.020Z,100126.00
2018-07-13T01:45:44.992Z,100132.00
2018-07-13T01:48:12.825Z,100122.00
2018-07-13T01:50:40.693Z,100120.00
2018-07-13T01:53:08.667Z,100114.00
2018-07-13T01:55:36.498Z,100117.00
2018-07-13T01:58:04.385Z,100125.00
2018-07-13T02:00:32.261Z,100122.00
2018-07-13T02:03:00.191Z,100128.00
2018-07-13T02:05:27.992Z,100122.00
2018-07-13T02:07:55.939Z,100128.00
2018-07-13T02:10:23.817Z,100132.00
2018-07-13T02:12:51.634Z,100127.00
2018-07-13T02:15:19.421Z,100129.00
2018-07-13T02:17:47.318Z,100134.00
2018-07-13T02:20:15.173Z,100132.00
2018-07-13T02:22:43.042Z,100138.00
2018-07-13T02:25:10.941Z,100141.00
2018-07-13T02:27:38.764Z,100141.00
2018-07-13T02:30:06.663Z,100143.00
2018-07-13T02:32:34.470Z,100140.00
2018-07-13T02:35:02.354Z,100136.00
2018-07-13T02:37:30.219Z,100133.00
2018-07-13T02:39:57.981Z,100145.00
2018-07-13T02:42:25.842Z,100136.00
2018-07-13T02:44:53.745Z,100144.00
2018-07-13T02:47:21.628Z,100137.00
2018-07-13T02:49:49.536Z,100140.00
2018-07-13T02:52:17.348Z,100139.00
2018-07-13T02:54:45.235Z,100143.00
2018-07-13T02:57:13.091Z,100157.00
2018-07-13T02:59:40.970Z,100148.00
2018-07-13T03:02:08.761Z,100158.00
2018-07-13T03:04:36.740Z,100150.00
2018-07-13T03:07:04.572Z,100156.00
2018-07-13T03:09:32.420Z,100174.00
2018-07-13T03:12:00.315Z,100165.00
2018-07-13T03:14:28.225Z,100170.00
2018-07-13T03:16:56.146Z,100175.00
2018-07-13T03:19:23.990Z,100172.00
2018-07-13T03:21:51.831Z,100167.00
2018-07-13T03:24:19.748Z,100186.00
2018-07-13T03:26:47.742Z,100175.00
2018-07-13T03:29:15.648Z,100194.00
2018-07-13T03:31:43.537Z,100187.00
2018-07-13T03:34:11.369Z,100183.00
2018-07-13T03:36:39.182Z,100183.00
2018-07-13T03:39:07.110Z,100193.00
2018-07-13T03:41:35.046Z,100197.00
2018-07-13T03:44:02.972Z,100198.00
2018-07-13T03:46:30.778Z,100199.00
2018-07-13T03:48:58.582Z,100206.00
2018-07-13T03:51:26.482Z,100201.00
2018-07-13T03:53:54.319Z,100201.00
2018-07-13T03:56:22.226Z,100204.00
2018-07-13T03:58:50.118Z,100213.00
2018-07-13T04:01:17.966Z,100209.00
2018-07-13T04:03:45.799Z,100210.00
2018-07-13T04:06:13.692Z,100211.00
2018-07-13T04:08:41.562Z,100227.00
2018-07-13T04:11:09.435Z,100221.00
2018-07-13T04:13:37.325Z,100222.00
2018-07-13T04:16:05.250Z,100215.00
2018-07-13T04:18:33.141Z,100218.00
2018-07-13T04:21:01.034Z,100215.00
2018-07-13T04:23:28.944Z,100225.00
2018-07-13T04:25:56.744Z,100231.00
2018-07-13T04:28:24.845Z,100229.00
2018-07-13T04:30:53.041Z,100227.00
2018-07-13T04:33:21.007Z,100224.00
2018-07-13T04:35:48.906Z,100231.00
2018-07-13T04:38:16.754Z,100226.00
2018-07-13T04:40:44.634Z,100231.00
2018-07-13T04:43:12.494Z,100229.00
2018-07-13T04:45:40.365Z,100232.00
2018-07-13T04:48:08.257Z,100242.00
2018-07-13T04:50:36.132Z,100237.00
2018-07-13T04:53:04.022Z,100231.00
2018-07-13T04:55:31.897Z,100237.00
2018-07-13T04:57:59.792Z,100239.00
2018-07-13T05:00:27.651Z,100241.00
2018-07-13T05:02:55.576Z,100238.00
2018-07-13T05:05:23.457Z,100241.00
2018-07-13T05:07:51.442Z,100241.00
2018-07-13T05:10:19.310Z,100247.00
2018-07-13T05:12:47.150Z,100258.00
2018-07-13T05:15:15.050Z,100254.00
2018-07-13T05:17:42.841Z,100254.00
2018-07-13T05:20:10.752Z,100251.00
2018-07-13T05:22:38.653Z,100257.00
2018-07-13T05:25:07.123Z,100272.00
2018-07-13T05:27:35.054Z,100270.00
2018-07-13T05:30:03.206Z,100270.00
2018-07-13T05:32:31.208Z,100269.00
2018-07-13T05:34:59.288Z,100271.00
2018-07-13T05:37:27.634Z,100266.00
2018-07-13T05:39:55.569Z,100268.00
2018-07-13T05:42:23.927Z,100272.00
2018-07-13T05:44:51.750Z,100265.00
2018-07-13T05:47:19.635Z,100267.00
2018-07-13T05:49:47.623Z,100272.00
2018-07-13T05:52:15.370Z,100278.00
2018-07-13T05:54:43.241Z,100284.00
2018-07-13T05:57:11.138Z,100287.00
2018-07-13T05:59:39.025Z,100296.00
2018-07-13T06:02:20.063Z,100288.00
2018-07-13T06:04:47.973Z,100294.00
2018-07-13T06:07:15.903Z,100299.00
2018-07-13T06:09:43.802Z,100298.00
2018-07-13T06:12:30.688Z,100290.00
2018-07-13T06:14:58.579Z,100306.00
2018-07-13T06:17:26.466Z,100304.00
2018-07-13T06:19:54.422Z,100318.00
2018-07-13T06:22:22.318Z,100320.00
2018-07-13T06:24:50.157Z,100306.00
2018-07-13T06:27:17.905Z,100310.00
2018-07-13T06:29:45.754Z,100302.00
2018-07-13T06:32:13.579Z,100302.00
2018-07-13T06:34:41.374Z,100297.00
2018-07-13T06:37:09.287Z,100317.00
2018-07-13T06:39:37.170Z,100323.00
2018-07-13T06:42:05.056Z,100313.00
2018-07-13T06:44:32.878Z,100313.00
2018-07-13T06:47:00.758Z,100325.00
2018-07-13T06:49:28.657Z,100307.00
2018-07-13T06:51:56.511Z,100306.00
2018-07-13T06:54:24.311Z,100306.00
2018-07-13T06:56:55.318Z,100308.00
2018-07-13T06:59:23.170Z,100256.00
2018-07-13T07:01:51.053Z,100317.00
2018-07-13T07:04:27.747Z,100316.00
2018-07-13T07:06:56.185Z,100297.00
2018-07-13T07:09:25.335Z,100300.00
2018-07-13T07:13:06.974Z,100296.00
2018-07-13T07:15:35.200Z,100330.00
2018-07-13T07:18:03.080Z,100301.00
2018-07-13T07:20:30.971Z,100301.00
2018-07-13T07:22:58.874Z,100330.00
2018-07-13T07:25:27.225Z,100316.00
2018-07-13T07:27:55.055Z,100319.00
2018-07-13T07:30:22.878Z,100358.00
2018-07-13T07:32:50.686Z,100321.00
2018-07-13T07:35:18.482Z,100332.00
2018-07-13T07:37:46.362Z,100335.00
2018-07-13T07:40:14.157Z,100345.00
2018-07-13T07:42:41.906Z,100344.00
2018-07-13T07:45:09.748Z,100350.00
2018-07-13T07:47:37.644Z,100345.00
2018-07-13T07:50:05.721Z,100341.00
2018-07-13T07:52:33.422Z,100346.00
2018-07-13T07:55:01.243Z,100338.00
2018-07-13T07:57:29.178Z,100350.00
2018-07-13T07:59:57.042Z,100354.00
2018-07-13T08:02:24.839Z,100348.00
2018-07-13T08:04:53.152Z,100347.00
2018-07-13T08:07:21.185Z,100346.00
2018-07-13T08:09:48.857Z,100340.00
2018-07-13T08:12:16.723Z,100344.00
2018-07-13T08:14:44.535Z,100350.00
2018-07-13T08:17:12.386Z,100351.00
2018-07-13T08:19:40.295Z,100341.00
2018-07-13T08:22:15.092Z,100334.00
2018-07-13T08:24:44.743Z,100333.00
2018-07-13T08:27:17.763Z,100333.00
2018-07-13T08:29:46.227Z,100344.00
2018-07-13T08:32:14.119Z,100339.00
2018-07-13T08:34:42.023Z,100357.00
2018-07-13T08:37:09.931Z,100344.00
2018-07-13T08:39:37.834Z,100337.00
2018-07-13T08:42:11.409Z,100342.00
2018-07-13T08:44:39.345Z,100339.00
2018-07-13T08:47:07.205Z,100343.00
2018-07-13T08:49:35.138Z,100353.00
2018-07-13T08:52:03.013Z,100348.00
2018-07-13T08:54:32.881Z,100354.00
2018-07-13T08:57:08.865Z,100339.00
2018-07-13T08:59:36.677Z,100345.00
2018-07-13T09:02:04.595Z,100356.00
2018-07-13T09:04:32.474Z,100351.00
2018-07-13T09:07:00.325Z,100351.00
2018-07-13T09:09:28.239Z,100355.00
2018-07-13T09:11:56.184Z,100360.00
2018-07-13T09:14:23.966Z,100359.00
2018-07-13T09:16:51.826Z,100349.00
2018-07-13T09:19:19.653Z,100352.00
2018-07-13T09:21:47.509Z,100356.00
2018-07-13T09:24:15.420Z,100348.00
2018-07-13T09:26:43.297Z,100352.00
2018-07-13T09:29:11.045Z,100348.00
2018-07-13T09:31:38.931Z,100343.00
2018-07-13T09:34:06.803Z,100346.00
2018-07-13T09:36:34.635Z,100345.00
2018-07-13T09:39:03.305Z,100349.00
2018-07-13T09:41:31.259Z,100342.00
2018-07-13T09:43:59.194Z,100353.00
2018-07-13T09:46:27.099Z,100349.00
2018-07-13T09:48:54.982Z,100354.00
2018-07-13T09:51:22.816Z,100348.00
2018-07-13T09:53:50.696Z,100341.00
2018-07-13T09:56:18.339Z,100341.00
2018-07-13T09:58:46.266Z,100340.00
2018-07-13T10:01:22.418Z,100344.00
2018-07-13T10:03:50.275Z,100333.00
2018-07-13T10:06:18.061Z,100336.00
2018-07-13T10:08:45.916Z,100353.00
2018-07-13T10:11:17.891Z,100339.00
2018-07-13T10:13:45.701Z,100352.00
2018-07-13T10:16:13.504Z,100357.00
2018-07-13T10:18:41.314Z,100354.00
2018-07-13T10:21:09.700Z,100352.00
2018-07-13T10:23:38.306Z,100334.00
2018-07-13T10:26:11.808Z,100325.00
2018-07-13T10:28:39.881Z,100336.00
2018-07-13T10:31:08.693Z,100340.00
2018-07-13T10:33:38.442Z,100344.00
2018-07-13T10:36:08.494Z,100344.00
2018-07-13T10:38:36.371Z,100338.00
2018-07-13T10:41:04.285Z,100340.00
2018-07-13T10:43:32.178Z,100352.00
2018-07-13T10:46:00.012Z,100347.00
2018-07-13T10:48:27.864Z,100339.00
2018-07-13T10:50:55.879Z,100326.00
2018-07-13T10:53:23.767Z,100340.00
2018-07-13T10:55:51.661Z,100325.00
2018-07-13T10:58:19.567Z,100316.00
2018-07-13T11:00:47.481Z,100326.00
2018-07-13T11:03:15.370Z,100318.00
2018-07-13T11:05:43.216Z,100322.00
2018-07-13T11:08:11.143Z,100331.00
2018-07-13T11:10:38.903Z,100324.00
2018-07-13T11:13:06.786Z,100321.00
2018-07-13T11:15:34.686Z,100319.00
2018-07-13T11:18:02.614Z,100325.00
2018-07-13T11:20:30.496Z,100308.00
2018-07-13T11:22:58.359Z,100316.00
2018-07-13T11:25:26.157Z,100325.00
2018-07-13T11:27:54.034Z,100312.00
2018-07-13T11:30:21.807Z,100310.00
2018-07-13T11:32:49.741Z,100309.00
2018-07-13T11:35:17.606Z,100310.00
2018-07-13T11:37:45.507Z,100310.00
2018-07-13T11:40:13.302Z,100297.00
2018-07-13T11:42:41.239Z,100307.00
2018-07-13T11:45:09.106Z,100306.00
2018-07-13T11:47:37.018Z,100295.00
2018-07-13T11:50:04.843Z,100308.00
2018-07-13T11:52:32.715Z,100293.00
2018-07-13T11:55:00.563Z,100302.00
2018-07-13T11:57:28.461Z,100300.00
2018-07-13T11:59:56.342Z,100299.00
2018-07-13T12:02:24.239Z,100296.00
2018-07-13T12:04:52.106Z,100295.00
2018-07-13T12:07:19.912Z,100288.00
2018-07-13T12:09:47.764Z,100288.00
2018-07-13T12:12:15.640Z,100290.00
2018-07-13T12:14:43.474Z,100291.00
2018-07-13T12:17:11.336Z,100277.00
2018-07-13T12:19:39.279Z,100287.00
2018-07-13T12:22:07.086Z,100291.00
2018-07-13T12:24:34.943Z,100281.00
2018-07-13T12:27:02.878Z,100281.00
2018-07-13T12:29:30.672Z,100279.00
2018-07-13T12:31:58.617Z,100280.00
2018-07-13T12:34:26.453Z,100267.00
2018-07-13T12:36:54.342Z,100260.00
2018-07-13T12:39:22.193Z,100263.00
2018-07-13T12:41:50.389Z,100263.00
2018-07-13T12:44:18.274Z,100252.00
2018-07-13T12:46:46.239Z,100257.00
2018-07-13T12:49:14.242Z,100252.00
2018-07-13T12:51:42.226Z,100256.00
2018-07-13T12:54:10.174Z,100261.00
2018-07-13T12:56:37.871Z,100265.00
2018-07-13T12:59:05.722Z,100262.00
2018-07-13T13:01:33.655Z,100257.00
2018-07-13T13:04:01.614Z,100262.00
2018-07-13T13:06:29.407Z,100253.00
2018-07-13T13:08:57.249Z,100251.00
2018-07-13T13:11:25.171Z,100260.00
2018-07-13T13:13:53.034Z,100269.00
2018-07-13T13:16:20.897Z,100251.00
2018-07-13T13:18:48.718Z,100259.00
2018-07-13T13:21:16.561Z,100264.00
2018-07-13T13:23:44.387Z,100250.00
2018-07-13T13:26:12.227Z,100265.00
2018-07-13T13:28:40.077Z,100262.00
2018-07-13T13:31:07.977Z,100257.00
2018-07-13T13:33:35.839Z,100266.00
2018-07-13T13:36:03.662Z,100272.00
2018-07-13T13:38:31.539Z,100277.00
2018-07-13T13:40:59.302Z,100271.00
2018-07-13T13:43:27.117Z,100263.00
2018-07-13T13:45:55.075Z,100273.00
2018-07-13T13:48:22.957Z,100263.00
2018-07-13T13:50:50.900Z,100265.00
2018-07-13T13:53:18.683Z,100258.00
2018-07-13T13:55:46.498Z,100254.00
2018-07-13T13:58:14.249Z,100265.00
2018-07-13T14:00:42.146Z,100252.00
2018-07-13T14:03:09.981Z,100250.00
2018-07-13T14:05:37.821Z,100258.00
2018-07-13T14:08:05.659Z,100248.00
2018-07-13T14:10:33.454Z,100259.00
2018-07-13T14:13:01.335Z,100253.00
2018-07-13T14:15:29.093Z,100249.00
2018-07-13T14:17:56.982Z,100253.00
2018-07-13T14:20:24.869Z,100252.00
2018-07-13T14:22:52.730Z,100253.00
2018-07-13T14:25:20.639Z,100243.00
2018-07-13T14:27:48.517Z,100248.00
2018-07-13T14:30:16.388Z,100265.00
2018-07-13T14:32:44.299Z,100262.00
2018-07-13T14:35:12.160Z,100235.00
2018-07-13T14:37:40.688Z,100247.00
2018-07-13T14:40:08.709Z,100237.00
2018-07-13T14:42:36.438Z,100240.00
2018-07-13T14:45:04.383Z,100237.00
2018-07-13T14:47:32.258Z,100240.00
2018-07-13T14:50:00.205Z,100236.00
2018-07-13T14:52:28.067Z,100223.00
2018-07-13T14:54:55.938Z,100233.00
2018-07-13T14:57:23.788Z,100233.00
2018-07-13T14:59:51.554Z,100239.00
2018-07-13T15:02:19.397Z,100236.00
2018-07-13T15:04:47.207Z,100231.00
2018-07-13T15:07:15.050Z,100239.00
2018-07-13T15:09:42.918Z,100240.00
2018-07-13T15:12:10.801Z,100254.00
2018-07-13T15:14:38.641Z,100238.00
2018-07-13T15:17:06.574Z,100240.00
2018-07-13T15:19:34.509Z,100242.00
2018-07-13T15:22:02.444Z,100237.00
2018-07-13T15:24:30.301Z,100240.00
2018-07-13T15:26:58.174Z,100229.00
2018-07-13T15:29:25.925Z,100237.00
2018-07-13T15:31:53.723Z,100231.00
2018-07-13T15:34:21.594Z,100237.00
2018-07-13T15:36:49.425Z,100235.00
2018-07-13T15:39:17.229Z,100228.00
2018-07-13T15:41:45.176Z,100228.00
2018-07-13T15:44:13.094Z,100222.00
2018-07-13T15:46:40.899Z,100225.00
2018-07-13T15:49:08.707Z,100229.00
2018-07-13T15:51:36.638Z,100229.00
2018-07-13T15:54:04.562Z,100222.00
2018-07-13T15:56:32.411Z,100228.00
2018-07-13T15:59:00.304Z,100232.00
2018-07-13T16:01:28.085Z,100225.00
2018-07-13T16:03:55.967Z,100224.00
2018-07-13T16:06:23.808Z,100222.00
2018-07-13T16:08:51.637Z,100213.00
2018-07-13T16:11:19.436Z,100218.00
2018-07-13T16:13:47.281Z,100218.00
2018-07-13T16:16:15.121Z,100222.00
2018-07-13T16:18:43.055Z,100219.00
2018-07-13T16:21:10.897Z,100225.00
2018-07-13T16:23:38.770Z,100213.00
2018-07-13T16:26:06.656Z,100213.00
2018-07-13T16:28:34.560Z,100206.00
2018-07-13T16:31:02.406Z,100207.00
2018-07-13T16:33:30.238Z,100205.00
2018-07-13T16:35:58.122Z,100200.00
2018-07-13T16:38:25.878Z,100207.00
2018-07-13T16:40:53.766Z,100214.00
2018-07-13T16:43:21.603Z,100214.00
2018-07-13T16:45:49.468Z,100211.00
2018-07-13T16:48:17.304Z,100207.00
2018-07-13T16:50:45.138Z,100214.00
2018-07-13T16:53:12.947Z,100205.00
2018-07-13T16:55:40.754Z,100216.00
2018-07-13T16:58:08.562Z,100213.00
2018-07-13T17:00:36.296Z,100201.00
2018-07-13T17:03:04.164Z,100205.00
2018-07-13T17:05:31.996Z,100204.00
2018-07-13T17:07:59.760Z,100204.00
2018-07-13T17:10:27.526Z,100197.00
2018-07-13T17:12:55.318Z,100202.00
2018-07-13T17:15:23.150Z,100207.00
2018-07-13T17:17:50.965Z,100212.00
2018-07-13T17:20:18.878Z,100208.00
2018-07-13T17:22:46.617Z,100211.00
2018-07-13T17:25:14.423Z,100217.00
2018-07-13T17:27:42.250Z,100207.00
2018-07-13T17:30:10.892Z,100206.00
2018-07-13T17:32:38.865Z,100213.00
2018-07-13T17:35:06.659Z,100219.00
2018-07-13T17:37:34.470Z,100210.00
2018-07-13T17:40:02.407Z,100214.00
2018-07-13T17:42:30.272Z,100208.00
2018-07-13T17:44:58.093Z,100215.00
2018-07-13T17:47:26.001Z,100216.00
2018-07-13T17:49:53.939Z,100215.00
2018-07-13T17:52:21.799Z,100225.00
2018-07-13T17:54:49.600Z,100226.00
2018-07-13T17:57:17.405Z,100223.00
2018-07-13T17:59:45.339Z,100224.00
2018-07-13T18:02:13.201Z,100229.00
2018-07-13T18:04:41.063Z,100224.00
2018-07-13T18:07:08.866Z,100222.00
2018-07-13T18:09:36.665Z,100233.00
2018-07-13T18:12:04.891Z,100223.00
2018-07-13T18:14:33.483Z,100226.00
2018-07-13T18:17:01.333Z,100224.00
2018-07-13T18:19:29.230Z,100226.00
2018-07-13T18:21:57.095Z,100229.00
2018-07-13T18:24:24.897Z,100229.00
2018-07-13T18:26:52.819Z,100236.00
2018-07-13T18:29:20.672Z,100237.00
2018-07-13T18:31:48.602Z,100237.00
2018-07-13T18:34:16.465Z,100240.00
2018-07-13T18:36:44.349Z,100245.00
2018-07-13T18:39:12.150Z,100250.00
2018-07-13T18:41:40.014Z,100251.00
2018-07-13T18:44:08.034Z,100253.00
2018-07-13T18:46:35.870Z,100248.00
2018-07-13T18:49:03.754Z,100251.00
2018-07-13T18:51:31.638Z,100253.00
2018-07-13T18:53:59.531Z,100252.00
2018-07-13T18:56:27.503Z,100258.00
2018-07-13T18:58:55.340Z,100267.00
2018-07-13T19:01:23.440Z,100272.00
2018-07-13T19:03:51.350Z,100269.00
2018-07-13T19:09:43.307Z,100278.00
2018-07-13T19:12:11.181Z,100273.00
2018-07-13T19:14:39.085Z,100277.00
2018-07-13T19:17:07.102Z,100285.00
2018-07-13T19:19:34.975Z,100289.00
2018-07-13T19:22:02.805Z,100289.00
2018-07-13T19:24:30.698Z,100282.00
2018-07-13T19:26:58.627Z,100289.00
2018-07-13T19:29:26.526Z,100301.00
2018-07-13T19:31:54.448Z,100290.00
2018-07-13T19:34:22.324Z,100294.00
2018-07-13T19:36:50.249Z,100305.00
2018-07-13T19:39:18.026Z,100305.00
2018-07-13T19:41:45.866Z,100307.00
2018-07-13T19:44:13.715Z,100315.00
2018-07-13T19:46:41.587Z,100314.00
2018-07-13T19:49:09.375Z,100313.00
2018-07-13T19:51:37.244Z,100319.00
2018-07-13T19:54:05.243Z,100315.00
2018-07-13T19:56:33.115Z,100312.00
2018-07-13T19:59:00.902Z,100319.00
2018-07-13T20:01:28.777Z,100313.00
2018-07-13T20:03:56.613Z,100331.00
2018-07-13T20:06:24.451Z,100316.00
2018-07-13T20:08:52.517Z,100309.00
2018-07-13T20:11:20.358Z,100312.00
2018-07-13T20:13:48.220Z,100322.00
2018-07-13T20:16:16.373Z,100324.00
2018-07-13T20:18:44.337Z,100317.00
2018-07-13T20:21:12.150Z,100315.00
2018-07-13T20:23:40.099Z,100312.00
2018-07-13T20:26:07.950Z,100315.00
2018-07-13T20:28:49.473Z,100325.00
2018-07-13T20:31:17.319Z,100330.00
2018-07-13T20:33:45.170Z,100334.00
2018-07-13T20:36:13.106Z,100335.00
2018-07-13T20:38:41.024Z,100331.00
2018-07-13T20:41:08.918Z,100336.00
2018-07-13T20:43:36.793Z,100334.00
2018-07-13T20:46:04.658Z,100333.00
2018-07-13T20:48:32.543Z,100333.00
2018-07-13T20:51:00.373Z,100341.00
2018-07-13T20:53:28.347Z,100350.00
2018-07-13T20:55:56.215Z,100339.00
2018-07-13T20:58:24.079Z,100370.00
2018-07-13T21:00:51.956Z,100366.00
2018-07-13T21:03:19.788Z,100369.00
2018-07-13T21:05:47.675Z,100367.00
2018-07-13T21:08:15.556Z,100364.00
2018-07-13T21:10:43.389Z,100365.00
2018-07-13T21:13:11.253Z,100366.00
2018-07-13T21:15:39.104Z,100367.00
2018-07-13T21:18:06.990Z,100366.00
2018-07-13T21:20:34.878Z,100362.00
2018-07-13T21:23:02.767Z,100359.00
2018-07-13T21:25:30.660Z,100368.00
2018-07-13T21:27:58.561Z,100356.00
2018-07-13T21:30:32.647Z,100369.00
2018-07-13T21:33:00.410Z,100375.00
2018-07-13T21:35:28.380Z,100378.00
2018-07-13T21:38:06.179Z,100374.00
2018-07-13T21:40:41.673Z,100378.00
2018-07-13T21:43:11.648Z,100373.00
2018-07-13T21:45:41.630Z,100364.00
2018-07-13T21:48:09.486Z,100373.00
2018-07-13T21:50:41.879Z,100368.00
2018-07-13T21:53:09.876Z,100368.00
2018-07-13T21:55:59.018Z,100372.00
2018-07-13T21:58:26.889Z,100361.00
2018-07-13T22:00:54.818Z,100364.00
2018-07-13T22:03:23.863Z,100362.00
2018-07-13T22:09:00.653Z,100365.00
2018-07-13T22:11:33.049Z,100370.00
2018-07-13T22:14:24.314Z,100377.00
2018-07-13T22:16:52.152Z,100369.00
2018-07-13T22:19:20.066Z,100374.00
2018-07-13T22:21:48.033Z,100375.00
2018-07-13T22:24:15.954Z,100380.00
2018-07-13T22:26:43.886Z,100377.00
2018-07-13T22:32:20.022Z,100373.00
2018-07-13T22:34:53.869Z,100375.00
2018-07-13T22:37:27.345Z,100375.00
2018-07-13T22:39:55.145Z,100367.00
2018-07-13T22:42:23.066Z,100369.00
2018-07-13T22:44:50.864Z,100376.00
2018-07-13T22:47:18.686Z,100367.00
2018-07-13T22:49:46.595Z,100371.00
2018-07-13T22:52:14.436Z,100373.00
2018-07-13T22:54:55.291Z,100378.00
2018-07-13T22:57:23.167Z,100382.00
2018-07-13T22:59:51.091Z,100380.00
2018-07-13T23:02:20.929Z,100386.00
2018-07-13T23:04:49.775Z,100392.00
2018-07-13T23:07:21.437Z,100390.00
2018-07-13T23:09:49.290Z,100386.00
2018-07-13T23:12:18.188Z,100389.00
2018-07-13T23:14:46.111Z,100375.00
2018-07-13T23:17:14.039Z,100382.00
2018-07-13T23:19:42.700Z,100383.00
2018-07-13T23:22:23.403Z,100387.00
2018-07-13T23:24:51.265Z,100390.00
2018-07-13T23:27:50.811Z,100380.00
2018-07-13T23:30:18.604Z,100389.00
2018-07-13T23:32:46.743Z,100385.00
2018-07-13T23:35:14.673Z,100385.00
2018-07-13T23:38:04.071Z,100388.00
2018-07-13T23:40:38.366Z,100387.00
2018-07-13T23:43:06.361Z,100384.00
2018-07-13T23:45:34.179Z,100385.00
2018-07-13T23:48:02.075Z,100386.00
2018-07-13T23:50:29.918Z,100385.00
2018-07-13T23:52:58.156Z,100379.00
2018-07-13T23:55:28.265Z,100388.00
2018-07-13T23:57:56.116Z,100385.00
